createdAt,value
2018-08-12T00:00:19.805Z,21.90
2018-08-12T00:00:51.584Z,21.80
2018-08-12T00:01:23.352Z,21.80
2018-08-12T00:01:55.124Z,21.80
2018-08-12T00:02:26.920Z,21.80
2018-08-12T00:02:58.675Z,21.80
2018-08-12T00:03:30.443Z,21.90
2018-08-12T00:04:02.299Z,21.90
2018-08-12T00:04:34.046Z,21.90
2018-08-12T00:05:05.804Z,21.90
2018-08-12T00:05:37.579Z,21.80
2018-08-12T00:06:09.327Z,21.80
2018-08-12T00:06:41.160Z,21.80
2018-08-12T00:07:12.927Z,21.80
2018-08-12T00:07:44.723Z,21.70
2018-08-12T00:08:16.484Z,21.70
2018-08-12T00:08:48.249Z,21.70
2018-08-12T00:09:20.036Z,21.70
2018-08-12T00:09:51.811Z,21.70
2018-08-12T00:10:23.581Z,21.70
2018-08-12T00:10:55.357Z,21.70
2018-08-12T00:11:27.131Z,21.70
2018-08-12T00:11:58.910Z,21.70
2018-08-12T00:12:30.702Z,21.70
2018-08-12T00:13:02.457Z,21.70
2018-08-12T00:13:34.256Z,21.80
2018-08-12T00:14:06.036Z,21.70
2018-08-12T00:14:37.869Z,21.70
2018-08-12T00:15:09.677Z,21.80
2018-08-12T00:15:41.403Z,21.80
2018-08-12T00:16:13.154Z,21.80
2018-08-12T00:16:44.912Z,21.80
2018-08-12T00:17:17.043Z,21.80
2018-08-12T00:17:49.290Z,21.80
2018-08-12T00:18:21.052Z,21.80
2018-08-12T00:18:52.873Z,21.70
2018-08-12T00:19:24.636Z,21.70
2018-08-12T00:19:56.404Z,21.70
2018-08-12T00:20:28.185Z,21.70
2018-08-12T00:20:59.946Z,21.70
2018-08-12T00:21:31.717Z,21.80
2018-08-12T00:22:03.509Z,21.80
2018-08-12T00:22:35.286Z,21.90
2018-08-12T00:23:07.133Z,21.90
2018-08-12T00:23:38.934Z,22.00
2018-08-12T00:24:10.696Z,22.00
2018-08-12T00:24:42.455Z,22.00
2018-08-12T00:25:14.228Z,22.00
2018-08-12T00:25:46.001Z,22.10
2018-08-12T00:26:17.924Z,22.10
2018-08-12T00:26:49.688Z,22.10
2018-08-12T00:27:21.465Z,22.10
2018-08-12T00:27:53.236Z,22.10
2018-08-12T00:28:25.007Z,22.10
2018-08-12T00:28:56.771Z,22.10
2018-08-12T00:29:28.574Z,22.20
2018-08-12T00:30:00.345Z,22.20
2018-08-12T00:30:32.105Z,22.10
2018-08-12T00:31:03.868Z,22.20
2018-08-12T00:31:35.659Z,22.20
2018-08-12T00:32:07.422Z,22.20
2018-08-12T00:32:39.181Z,22.20
2018-08-12T00:33:10.953Z,22.20
2018-08-12T00:33:42.716Z,22.20
2018-08-12T00:34:14.521Z,22.30
2018-08-12T00:34:46.291Z,22.20
2018-08-12T00:35:18.044Z,22.20
2018-08-12T00:35:49.809Z,22.20
2018-08-12T00:36:21.572Z,22.20
2018-08-12T00:36:53.344Z,22.20
2018-08-12T00:37:25.126Z,22.20
2018-08-12T00:37:56.884Z,22.20
2018-08-12T00:38:28.686Z,22.20
2018-08-12T00:39:00.424Z,22.20
2018-08-12T00:39:32.218Z,22.20
2018-08-12T00:40:03.993Z,22.20
2018-08-12T00:40:35.866Z,22.20
2018-08-12T00:41:07.727Z,22.20
2018-08-12T00:41:39.578Z,22.20
2018-08-12T00:42:11.324Z,22.20
2018-08-12T00:42:43.101Z,22.20
2018-08-12T00:43:14.864Z,22.10
2018-08-12T00:43:46.636Z,22.10
2018-08-12T00:44:18.422Z,22.10
2018-08-12T00:44:50.196Z,22.10
2018-08-12T00:45:21.971Z,22.10
2018-08-12T00:45:53.733Z,22.10
2018-08-12T00:46:25.500Z,22.20
2018-08-12T00:46:57.273Z,22.20
2018-08-12T00:47:29.039Z,22.20
2018-08-12T00:48:00.825Z,22.20
2018-08-12T00:48:32.585Z,22.20
2018-08-12T00:49:04.338Z,22.20
2018-08-12T00:49:36.109Z,22.20
2018-08-12T00:50:07.883Z,22.20
2018-08-12T00:50:39.654Z,22.20
2018-08-12T00:51:11.412Z,22.20
2018-08-12T00:51:43.335Z,22.30
2018-08-12T00:52:15.195Z,22.30
2018-08-12T00:52:46.931Z,22.30
2018-08-12T00:53:18.696Z,22.30
2018-08-12T00:53:50.460Z,22.30
2018-08-12T00:54:22.257Z,22.30
2018-08-12T00:54:54.033Z,22.30
2018-08-12T00:55:25.821Z,22.20
2018-08-12T00:55:57.576Z,22.30
2018-08-12T00:56:29.336Z,22.30
2018-08-12T00:57:01.095Z,22.20
2018-08-12T00:57:32.857Z,22.20
2018-08-12T00:58:04.627Z,22.20
2018-08-12T00:58:36.416Z,22.20
2018-08-12T00:59:08.174Z,22.20
2018-08-12T00:59:39.933Z,22.20
2018-08-12T01:00:11.698Z,22.30
2018-08-12T01:00:43.472Z,22.20
2018-08-12T01:01:15.225Z,22.20
2018-08-12T01:01:47.002Z,22.20
2018-08-12T01:02:18.765Z,22.20
2018-08-12T01:02:50.542Z,22.20
2018-08-12T01:03:22.309Z,22.20
2018-08-12T01:03:54.061Z,22.20
2018-08-12T01:04:25.839Z,22.20
2018-08-12T01:04:57.606Z,22.20
2018-08-12T01:05:29.377Z,22.20
2018-08-12T01:06:01.144Z,22.20
2018-08-12T01:06:32.902Z,22.20
2018-08-12T01:07:04.657Z,22.20
2018-08-12T01:07:36.436Z,22.20
2018-08-12T01:08:08.192Z,22.30
2018-08-12T01:08:39.969Z,22.20
2018-08-12T01:09:11.748Z,22.30
2018-08-12T01:09:43.517Z,22.30
2018-08-12T01:10:15.286Z,22.30
2018-08-12T01:10:47.063Z,22.30
2018-08-12T01:11:18.824Z,22.30
2018-08-12T01:11:50.620Z,22.20
2018-08-12T01:12:22.415Z,22.20
2018-08-12T01:12:54.172Z,22.30
2018-08-12T01:13:25.972Z,22.30
2018-08-12T01:13:57.741Z,22.20
2018-08-12T01:14:29.503Z,22.20
2018-08-12T01:15:01.274Z,22.20
2018-08-12T01:15:33.059Z,22.10
2018-08-12T01:16:04.822Z,22.20
2018-08-12T01:16:36.577Z,22.20
2018-08-12T01:17:08.348Z,22.20
2018-08-12T01:17:40.109Z,22.20
2018-08-12T01:18:11.893Z,22.10
2018-08-12T01:18:43.655Z,22.10
2018-08-12T01:19:15.424Z,22.10
2018-08-12T01:19:47.185Z,22.10
2018-08-12T01:20:18.988Z,22.00
2018-08-12T01:20:50.793Z,22.00
2018-08-12T01:21:22.549Z,22.10
2018-08-12T01:21:54.337Z,22.00
2018-08-12T01:22:26.108Z,22.00
2018-08-12T01:22:57.856Z,22.00
2018-08-12T01:23:29.632Z,22.00
2018-08-12T01:24:01.397Z,21.90
2018-08-12T01:24:33.326Z,21.90
2018-08-12T01:25:05.083Z,21.80
2018-08-12T01:25:36.836Z,21.70
2018-08-12T01:26:08.612Z,21.70
2018-08-12T01:26:40.363Z,21.80
2018-08-12T01:27:12.130Z,21.90
2018-08-12T01:27:43.911Z,21.90
2018-08-12T01:28:15.671Z,21.90
2018-08-12T01:28:47.452Z,21.90
2018-08-12T01:29:19.215Z,22.00
2018-08-12T01:29:50.982Z,22.00
2018-08-12T01:30:22.780Z,22.00
2018-08-12T01:30:54.579Z,22.00
2018-08-12T01:31:26.329Z,22.00
2018-08-12T01:31:58.092Z,22.00
2018-08-12T01:32:29.884Z,21.90
2018-08-12T01:33:01.649Z,21.90
2018-08-12T01:33:33.481Z,21.90
2018-08-12T01:34:05.226Z,21.90
2018-08-12T01:34:36.997Z,21.90
2018-08-12T01:35:08.775Z,21.80
2018-08-12T01:35:40.563Z,21.80
2018-08-12T01:36:12.331Z,21.70
2018-08-12T01:36:44.114Z,21.50
2018-08-12T01:37:15.876Z,21.40
2018-08-12T01:37:47.641Z,21.40
2018-08-12T01:38:19.428Z,21.30
2018-08-12T01:38:51.201Z,21.20
2018-08-12T01:39:22.975Z,21.20
2018-08-12T01:39:54.836Z,21.20
2018-08-12T01:40:26.630Z,21.20
2018-08-12T01:40:58.384Z,21.20
2018-08-12T01:41:30.144Z,21.20
2018-08-12T01:42:01.908Z,21.20
2018-08-12T01:42:33.696Z,21.20
2018-08-12T01:43:05.469Z,21.20
2018-08-12T01:43:37.239Z,21.20
2018-08-12T01:44:09.012Z,21.20
2018-08-12T01:44:40.771Z,21.10
2018-08-12T01:45:12.535Z,21.20
2018-08-12T01:45:44.310Z,21.20
2018-08-12T01:46:16.094Z,21.30
2018-08-12T01:46:47.840Z,21.40
2018-08-12T01:47:19.610Z,21.40
2018-08-12T01:47:51.386Z,21.40
2018-08-12T01:48:23.157Z,21.50
2018-08-12T01:48:54.933Z,21.50
2018-08-12T01:49:26.714Z,21.60
2018-08-12T01:49:58.491Z,21.60
2018-08-12T01:50:30.307Z,21.70
2018-08-12T01:51:02.078Z,21.70
2018-08-12T01:51:33.859Z,21.80
2018-08-12T01:52:05.621Z,21.90
2018-08-12T01:52:37.384Z,21.90
2018-08-12T01:53:09.166Z,22.00
2018-08-12T01:53:40.928Z,22.00
2018-08-12T01:54:12.682Z,22.10
2018-08-12T01:54:44.463Z,22.10
2018-08-12T01:55:16.232Z,22.10
2018-08-12T01:55:48.006Z,22.10
2018-08-12T01:56:19.760Z,22.20
2018-08-12T01:56:51.549Z,22.20
2018-08-12T01:57:23.307Z,22.20
2018-08-12T01:57:55.089Z,22.20
2018-08-12T01:58:26.844Z,22.20
2018-08-12T01:58:58.617Z,22.20
2018-08-12T01:59:30.366Z,22.30
2018-08-12T02:00:02.133Z,22.30
2018-08-12T02:00:33.889Z,22.30
2018-08-12T02:01:05.650Z,22.30
2018-08-12T02:01:37.413Z,22.30
2018-08-12T02:02:09.176Z,22.30
2018-08-12T02:02:40.953Z,22.30
2018-08-12T02:03:12.715Z,22.30
2018-08-12T02:03:44.480Z,22.40
2018-08-12T02:04:16.255Z,22.40
2018-08-12T02:04:48.029Z,22.30
2018-08-12T02:05:19.799Z,22.40
2018-08-12T02:05:51.763Z,22.40
2018-08-12T02:06:23.528Z,22.40
2018-08-12T02:06:55.299Z,22.40
2018-08-12T02:07:27.063Z,22.40
2018-08-12T02:07:58.829Z,22.40
2018-08-12T02:08:30.597Z,22.40
2018-08-12T02:09:02.360Z,22.40
2018-08-12T02:09:34.138Z,22.40
2018-08-12T02:10:06.323Z,22.40
2018-08-12T02:10:38.272Z,22.30
2018-08-12T02:11:10.193Z,22.40
2018-08-12T02:11:42.396Z,22.40
2018-08-12T02:12:14.124Z,22.40
2018-08-12T02:12:45.905Z,22.40
2018-08-12T02:13:17.684Z,22.40
2018-08-12T02:13:49.470Z,22.40
2018-08-12T02:14:21.215Z,22.40
2018-08-12T02:14:52.976Z,22.30
2018-08-12T02:15:24.759Z,22.30
2018-08-12T02:15:56.511Z,22.30
2018-08-12T02:16:28.289Z,22.30
2018-08-12T02:17:00.036Z,22.30
2018-08-12T02:17:31.838Z,22.30
2018-08-12T02:18:03.609Z,22.30
2018-08-12T02:18:35.421Z,22.30
2018-08-12T02:19:07.190Z,22.30
2018-08-12T02:19:38.969Z,22.30
2018-08-12T02:20:10.739Z,22.30
2018-08-12T02:20:42.557Z,22.30
2018-08-12T02:21:14.321Z,22.30
2018-08-12T02:21:46.096Z,22.30
2018-08-12T02:22:17.943Z,22.30
2018-08-12T02:22:49.718Z,22.30
2018-08-12T02:23:21.485Z,22.30
2018-08-12T02:23:53.383Z,22.30
2018-08-12T02:24:25.158Z,22.30
2018-08-12T02:24:56.926Z,22.30
2018-08-12T02:25:28.694Z,22.20
2018-08-12T02:26:00.508Z,22.20
2018-08-12T02:26:32.285Z,22.20
2018-08-12T02:27:04.054Z,22.20
2018-08-12T02:27:35.826Z,22.30
2018-08-12T02:28:07.593Z,22.30
2018-08-12T02:28:39.360Z,22.30
2018-08-12T02:29:11.124Z,22.30
2018-08-12T02:29:42.896Z,22.30
2018-08-12T02:30:14.671Z,22.30
2018-08-12T02:30:46.429Z,22.30
2018-08-12T02:31:18.207Z,22.30
2018-08-12T02:31:49.977Z,22.30
2018-08-12T02:32:21.737Z,22.30
2018-08-12T02:32:53.508Z,22.30
2018-08-12T02:33:25.264Z,22.30
2018-08-12T02:33:57.037Z,22.20
2018-08-12T02:34:28.794Z,22.30
2018-08-12T02:35:00.544Z,22.20
2018-08-12T02:35:32.339Z,22.30
2018-08-12T02:36:04.128Z,22.20
2018-08-12T02:36:35.949Z,22.20
2018-08-12T02:37:07.712Z,22.20
2018-08-12T02:37:39.497Z,22.20
2018-08-12T02:38:11.265Z,22.20
2018-08-12T02:38:43.028Z,22.20
2018-08-12T02:39:14.881Z,22.20
2018-08-12T02:39:46.634Z,22.20
2018-08-12T02:40:18.401Z,22.20
2018-08-12T02:40:50.202Z,22.20
2018-08-12T02:41:21.974Z,22.20
2018-08-12T02:41:53.744Z,22.20
2018-08-12T02:42:25.501Z,22.20
2018-08-12T02:42:57.254Z,22.30
2018-08-12T02:43:29.029Z,22.30
2018-08-12T02:44:00.802Z,22.30
2018-08-12T02:44:32.557Z,22.20
2018-08-12T02:45:04.319Z,22.20
2018-08-12T02:45:36.120Z,22.30
2018-08-12T02:46:07.903Z,22.30
2018-08-12T02:46:39.719Z,22.30
2018-08-12T02:47:11.449Z,22.20
2018-08-12T02:47:43.223Z,22.30
2018-08-12T02:48:14.984Z,22.30
2018-08-12T02:48:46.753Z,22.30
2018-08-12T02:49:18.513Z,22.30
2018-08-12T02:49:50.276Z,22.30
2018-08-12T02:50:22.053Z,22.30
2018-08-12T02:50:53.804Z,22.30
2018-08-12T02:51:25.572Z,22.30
2018-08-12T02:51:57.317Z,22.40
2018-08-12T02:52:29.124Z,22.40
2018-08-12T02:53:00.872Z,22.30
2018-08-12T02:53:32.649Z,22.30
2018-08-12T02:54:04.394Z,22.30
2018-08-12T02:54:36.159Z,22.30
2018-08-12T02:55:07.924Z,22.30
2018-08-12T02:55:39.686Z,22.30
2018-08-12T02:56:11.449Z,22.30
2018-08-12T02:56:43.249Z,22.30
2018-08-12T02:57:15.001Z,22.30
2018-08-12T02:57:46.765Z,22.30
2018-08-12T02:58:18.524Z,22.30
2018-08-12T02:58:50.333Z,22.30
2018-08-12T02:59:22.102Z,22.30
2018-08-12T02:59:53.864Z,22.30
2018-08-12T03:00:25.644Z,22.30
2018-08-12T03:00:57.402Z,22.30
2018-08-12T03:01:29.169Z,22.30
2018-08-12T03:02:00.950Z,22.30
2018-08-12T03:02:32.714Z,22.30
2018-08-12T03:03:04.515Z,22.30
2018-08-12T03:03:36.270Z,22.30
2018-08-12T03:04:08.028Z,22.40
2018-08-12T03:04:39.785Z,22.40
2018-08-12T03:05:11.548Z,22.40
2018-08-12T03:05:43.323Z,22.40
2018-08-12T03:06:15.090Z,22.40
2018-08-12T03:06:46.844Z,22.40
2018-08-12T03:07:18.612Z,22.40
2018-08-12T03:07:50.390Z,22.40
2018-08-12T03:08:22.148Z,22.30
2018-08-12T03:08:53.921Z,22.30
2018-08-12T03:09:25.666Z,22.30
2018-08-12T03:09:57.439Z,22.30
2018-08-12T03:10:29.209Z,22.30
2018-08-12T03:11:00.968Z,22.30
2018-08-12T03:11:32.729Z,22.30
2018-08-12T03:12:04.490Z,22.30
2018-08-12T03:12:36.242Z,22.30
2018-08-12T03:13:08.057Z,22.30
2018-08-12T03:13:39.816Z,22.30
2018-08-12T03:14:11.575Z,22.30
2018-08-12T03:14:43.383Z,22.30
2018-08-12T03:15:15.187Z,22.30
2018-08-12T03:15:46.939Z,22.20
2018-08-12T03:16:18.690Z,22.20
2018-08-12T03:16:50.510Z,22.20
2018-08-12T03:17:22.267Z,22.20
2018-08-12T03:17:54.022Z,22.20
2018-08-12T03:18:25.780Z,22.20
2018-08-12T03:18:57.552Z,22.10
2018-08-12T03:19:29.340Z,22.10
2018-08-12T03:20:01.126Z,22.10
2018-08-12T03:20:32.888Z,22.10
2018-08-12T03:21:04.664Z,22.10
2018-08-12T03:21:36.439Z,22.10
2018-08-12T03:22:08.200Z,22.00
2018-08-12T03:22:39.974Z,22.00
2018-08-12T03:23:11.833Z,22.00
2018-08-12T03:23:43.604Z,22.00
2018-08-12T03:24:15.367Z,22.00
2018-08-12T03:24:47.150Z,22.00
2018-08-12T03:25:18.904Z,22.00
2018-08-12T03:25:50.664Z,22.00
2018-08-12T03:26:22.426Z,21.90
2018-08-12T03:26:54.196Z,21.90
2018-08-12T03:27:25.965Z,21.90
2018-08-12T03:27:57.730Z,21.90
2018-08-12T03:28:29.509Z,21.90
2018-08-12T03:29:01.254Z,21.90
2018-08-12T03:29:33.012Z,22.00
2018-08-12T03:30:04.829Z,22.00
2018-08-12T03:30:36.544Z,22.00
2018-08-12T03:31:08.321Z,22.00
2018-08-12T03:31:40.081Z,22.00
2018-08-12T03:32:11.834Z,22.00
2018-08-12T03:32:43.584Z,22.00
2018-08-12T03:33:15.348Z,22.10
2018-08-12T03:33:47.110Z,22.10
2018-08-12T03:34:18.873Z,22.10
2018-08-12T03:34:50.628Z,22.10
2018-08-12T03:35:22.396Z,22.10
2018-08-12T03:35:54.158Z,22.10
2018-08-12T03:36:25.914Z,22.10
2018-08-12T03:36:57.665Z,22.10
2018-08-12T03:37:29.445Z,22.10
2018-08-12T03:38:01.193Z,22.00
2018-08-12T03:38:32.959Z,22.00
2018-08-12T03:39:04.712Z,22.00
2018-08-12T03:39:36.515Z,22.00
2018-08-12T03:40:08.277Z,22.00
2018-08-12T03:40:40.045Z,22.10
2018-08-12T03:41:11.814Z,22.00
2018-08-12T03:41:43.564Z,22.10
2018-08-12T03:42:15.342Z,22.10
2018-08-12T03:42:47.099Z,22.00
2018-08-12T03:43:18.860Z,22.00
2018-08-12T03:43:50.643Z,22.00
2018-08-12T03:44:22.403Z,22.00
2018-08-12T03:44:54.172Z,22.10
2018-08-12T03:45:25.924Z,22.00
2018-08-12T03:45:57.703Z,22.00
2018-08-12T03:46:29.501Z,22.00
2018-08-12T03:47:01.268Z,22.10
2018-08-12T03:47:33.024Z,22.10
2018-08-12T03:48:04.801Z,22.10
2018-08-12T03:48:36.561Z,22.00
2018-08-12T03:49:08.428Z,22.00
2018-08-12T03:49:40.171Z,22.00
2018-08-12T03:50:11.928Z,22.00
2018-08-12T03:50:43.720Z,22.00
2018-08-12T03:51:15.501Z,22.10
2018-08-12T03:51:47.250Z,22.10
2018-08-12T03:52:19.008Z,22.10
2018-08-12T03:52:50.791Z,22.10
2018-08-12T03:53:22.557Z,22.20
2018-08-12T03:53:54.334Z,22.20
2018-08-12T03:54:26.098Z,22.20
2018-08-12T03:54:57.862Z,22.20
2018-08-12T03:55:29.629Z,22.20
2018-08-12T03:56:01.401Z,22.20
2018-08-12T03:56:33.189Z,22.20
2018-08-12T03:57:04.953Z,22.20
2018-08-12T03:57:36.708Z,22.20
2018-08-12T03:58:08.475Z,22.20
2018-08-12T03:58:40.238Z,22.20
2018-08-12T03:59:11.992Z,22.20
2018-08-12T03:59:43.760Z,22.20
2018-08-12T04:00:15.568Z,22.20
2018-08-12T04:00:47.330Z,22.10
2018-08-12T04:01:19.095Z,22.10
2018-08-12T04:01:50.840Z,22.10
2018-08-12T04:02:22.661Z,22.20
2018-08-12T04:02:54.388Z,22.10
2018-08-12T04:03:26.152Z,22.10
2018-08-12T04:03:57.918Z,22.10
2018-08-12T04:04:29.824Z,22.10
2018-08-12T04:05:01.588Z,22.10
2018-08-12T04:05:33.363Z,22.10
2018-08-12T04:06:05.119Z,22.10
2018-08-12T04:06:36.909Z,22.10
2018-08-12T04:07:08.676Z,22.10
2018-08-12T04:07:40.435Z,22.10
2018-08-12T04:08:12.258Z,22.10
2018-08-12T04:08:44.004Z,22.10
2018-08-12T04:09:15.780Z,22.10
2018-08-12T04:09:47.523Z,22.10
2018-08-12T04:10:19.292Z,22.10
2018-08-12T04:10:51.081Z,22.10
2018-08-12T04:11:22.832Z,22.10
2018-08-12T04:11:54.577Z,22.20
2018-08-12T04:12:26.361Z,22.20
2018-08-12T04:12:58.112Z,22.20
2018-08-12T04:13:29.879Z,22.20
2018-08-12T04:14:01.710Z,22.20
2018-08-12T04:14:33.480Z,22.20
2018-08-12T04:15:05.279Z,22.20
2018-08-12T04:15:37.029Z,22.20
2018-08-12T04:16:08.792Z,22.20
2018-08-12T04:16:40.554Z,22.20
2018-08-12T04:17:12.305Z,22.20
2018-08-12T04:17:44.076Z,22.20
2018-08-12T04:18:15.834Z,22.30
2018-08-12T04:18:47.584Z,22.30
2018-08-12T04:19:19.391Z,22.30
2018-08-12T04:19:51.128Z,22.30
2018-08-12T04:20:22.893Z,22.30
2018-08-12T04:20:54.660Z,22.30
2018-08-12T04:21:26.474Z,22.30
2018-08-12T04:21:58.329Z,22.20
2018-08-12T04:22:30.112Z,22.20
2018-08-12T04:23:01.872Z,22.20
2018-08-12T04:23:33.660Z,22.20
2018-08-12T04:24:05.414Z,22.20
2018-08-12T04:24:37.183Z,22.20
2018-08-12T04:25:08.976Z,22.20
2018-08-12T04:25:40.746Z,22.20
2018-08-12T04:26:12.497Z,22.20
2018-08-12T04:26:44.276Z,22.20
2018-08-12T04:27:16.037Z,22.20
2018-08-12T04:27:47.801Z,22.20
2018-08-12T04:28:19.567Z,22.10
2018-08-12T04:28:51.335Z,22.20
2018-08-12T04:29:23.088Z,22.20
2018-08-12T04:29:54.867Z,22.20
2018-08-12T04:30:26.643Z,22.20
2018-08-12T04:30:58.397Z,22.20
2018-08-12T04:31:30.158Z,22.20
2018-08-12T04:32:01.927Z,22.20
2018-08-12T04:32:33.678Z,22.20
2018-08-12T04:33:05.449Z,22.20
2018-08-12T04:33:37.317Z,22.20
2018-08-12T04:34:09.099Z,22.20
2018-08-12T04:34:40.890Z,22.20
2018-08-12T04:35:12.635Z,22.20
2018-08-12T04:35:44.403Z,22.20
2018-08-12T04:36:16.210Z,22.20
2018-08-12T04:36:47.976Z,22.20
2018-08-12T04:37:19.773Z,22.20
2018-08-12T04:37:51.537Z,22.20
2018-08-12T04:38:23.302Z,22.30
2018-08-12T04:38:55.049Z,22.30
2018-08-12T04:39:26.805Z,22.30
2018-08-12T04:39:58.572Z,22.30
2018-08-12T04:40:30.329Z,22.20
2018-08-12T04:41:02.106Z,22.20
2018-08-12T04:41:33.868Z,22.20
2018-08-12T04:42:05.631Z,22.20
2018-08-12T04:42:37.392Z,22.10
2018-08-12T04:43:09.169Z,22.10
2018-08-12T04:43:40.927Z,22.10
2018-08-12T04:44:12.699Z,22.10
2018-08-12T04:44:44.469Z,22.10
2018-08-12T04:45:16.238Z,22.10
2018-08-12T04:45:48.018Z,22.20
2018-08-12T04:46:19.778Z,22.10
2018-08-12T04:46:51.550Z,22.20
2018-08-12T04:47:23.311Z,22.20
2018-08-12T04:47:55.086Z,22.20
2018-08-12T04:48:26.854Z,22.20
2018-08-12T04:48:58.633Z,22.20
2018-08-12T04:49:30.392Z,22.20
2018-08-12T04:50:02.170Z,22.20
2018-08-12T04:50:33.933Z,22.20
2018-08-12T04:51:05.696Z,22.20
2018-08-12T04:51:37.456Z,22.20
2018-08-12T04:52:09.219Z,22.20
2018-08-12T04:52:40.996Z,22.20
2018-08-12T04:53:12.753Z,22.20
2018-08-12T04:53:44.524Z,22.30
2018-08-12T04:54:16.301Z,22.30
2018-08-12T04:54:48.068Z,22.30
2018-08-12T04:55:19.834Z,22.30
2018-08-12T04:55:51.601Z,22.30
2018-08-12T04:56:23.361Z,22.30
2018-08-12T04:56:55.119Z,22.30
2018-08-12T04:57:26.906Z,22.30
2018-08-12T04:57:58.659Z,22.40
2018-08-12T04:58:30.439Z,22.40
2018-08-12T04:59:02.250Z,22.30
2018-08-12T04:59:34.010Z,22.30
2018-08-12T05:00:05.791Z,22.40
2018-08-12T05:00:37.554Z,22.40
2018-08-12T05:01:09.380Z,22.40
2018-08-12T05:01:41.175Z,22.40
2018-08-12T05:02:12.936Z,22.30
2018-08-12T05:02:44.714Z,22.30
2018-08-12T05:03:16.675Z,22.30
2018-08-12T05:03:48.492Z,22.30
2018-08-12T05:04:20.251Z,22.30
2018-08-12T05:04:52.109Z,22.30
2018-08-12T05:05:24.544Z,22.30
2018-08-12T05:05:56.947Z,22.40
2018-08-12T05:06:28.726Z,22.40
2018-08-12T05:07:00.493Z,22.40
2018-08-12T05:07:32.263Z,22.40
2018-08-12T05:08:04.099Z,22.40
2018-08-12T05:08:35.853Z,22.40
2018-08-12T05:09:07.601Z,22.40
2018-08-12T05:09:39.377Z,22.40
2018-08-12T05:10:11.144Z,22.40
2018-08-12T05:10:42.904Z,22.40
2018-08-12T05:11:14.677Z,22.40
2018-08-12T05:11:46.439Z,22.40
2018-08-12T05:12:18.216Z,22.40
2018-08-12T05:12:49.989Z,22.40
2018-08-12T05:13:21.954Z,22.30
2018-08-12T05:13:53.738Z,22.30
2018-08-12T05:14:25.497Z,22.30
2018-08-12T05:14:57.261Z,22.30
2018-08-12T05:15:29.052Z,22.30
2018-08-12T05:16:00.880Z,22.30
2018-08-12T05:16:32.638Z,22.30
2018-08-12T05:17:04.477Z,22.30
2018-08-12T05:17:36.242Z,22.30
2018-08-12T05:18:08.019Z,22.30
2018-08-12T05:18:39.780Z,22.30
2018-08-12T05:19:11.563Z,22.30
2018-08-12T05:19:43.333Z,22.30
2018-08-12T05:20:15.100Z,22.30
2018-08-12T05:20:46.881Z,22.30
2018-08-12T05:21:18.641Z,22.30
2018-08-12T05:21:50.419Z,22.30
2018-08-12T05:22:22.197Z,22.30
2018-08-12T05:22:53.956Z,22.30
2018-08-12T05:23:25.728Z,22.30
2018-08-12T05:23:57.512Z,22.40
2018-08-12T05:24:29.274Z,22.40
2018-08-12T05:25:01.040Z,22.40
2018-08-12T05:25:32.791Z,22.40
2018-08-12T05:26:04.580Z,22.40
2018-08-12T05:26:36.341Z,22.40
2018-08-12T05:27:08.115Z,22.40
2018-08-12T05:27:39.870Z,22.40
2018-08-12T05:28:11.640Z,22.40
2018-08-12T05:28:43.401Z,22.40
2018-08-12T05:29:15.173Z,22.30
2018-08-12T05:29:46.931Z,22.30
2018-08-12T05:30:18.690Z,22.30
2018-08-12T05:30:50.585Z,22.30
2018-08-12T05:31:22.351Z,22.30
2018-08-12T05:31:54.136Z,22.30
2018-08-12T05:32:25.909Z,22.30
2018-08-12T05:32:57.660Z,22.30
2018-08-12T05:33:29.452Z,22.30
2018-08-12T05:34:01.245Z,22.30
2018-08-12T05:34:32.993Z,22.30
2018-08-12T05:35:04.765Z,22.30
2018-08-12T05:35:36.529Z,22.30
2018-08-12T05:36:08.320Z,22.20
2018-08-12T05:36:40.088Z,22.30
2018-08-12T05:37:11.847Z,22.30
2018-08-12T05:37:43.630Z,22.30
2018-08-12T05:38:15.403Z,22.30
2018-08-12T05:38:47.238Z,22.30
2018-08-12T05:39:18.991Z,22.30
2018-08-12T05:39:50.830Z,22.30
2018-08-12T05:40:22.593Z,22.30
2018-08-12T05:40:54.427Z,22.40
2018-08-12T05:41:26.206Z,22.40
2018-08-12T05:41:57.965Z,22.40
2018-08-12T05:42:29.756Z,22.40
2018-08-12T05:43:01.544Z,22.40
2018-08-12T05:43:33.321Z,22.40
2018-08-12T05:44:05.100Z,22.40
2018-08-12T05:44:36.870Z,22.40
2018-08-12T05:45:08.622Z,22.40
2018-08-12T05:45:40.435Z,22.40
2018-08-12T05:46:12.199Z,22.40
2018-08-12T05:46:43.951Z,22.40
2018-08-12T05:47:15.780Z,22.40
2018-08-12T05:47:47.557Z,22.30
2018-08-12T05:48:19.320Z,22.30
2018-08-12T05:48:51.083Z,22.30
2018-08-12T05:49:22.864Z,22.30
2018-08-12T05:49:54.648Z,22.30
2018-08-12T05:50:26.421Z,22.30
2018-08-12T05:50:58.235Z,22.30
2018-08-12T05:51:29.978Z,22.30
2018-08-12T05:52:01.741Z,22.30
2018-08-12T05:52:33.513Z,22.30
2018-08-12T05:53:05.270Z,22.40
2018-08-12T05:53:37.058Z,22.40
2018-08-12T05:54:08.808Z,22.30
2018-08-12T05:54:40.581Z,22.40
2018-08-12T05:55:12.358Z,22.40
2018-08-12T05:55:44.172Z,22.30
2018-08-12T05:56:15.932Z,22.30
2018-08-12T05:56:47.778Z,22.30
2018-08-12T05:57:19.595Z,22.30
2018-08-12T05:57:51.325Z,22.30
2018-08-12T05:58:23.067Z,22.40
2018-08-12T05:58:54.836Z,22.40
2018-08-12T05:59:26.610Z,22.40
2018-08-12T05:59:58.380Z,22.40
2018-08-12T06:00:30.144Z,22.40
2018-08-12T06:01:01.908Z,22.40
2018-08-12T06:01:33.668Z,22.40
2018-08-12T06:02:05.437Z,22.40
2018-08-12T06:02:37.229Z,22.40
2018-08-12T06:03:08.984Z,22.30
2018-08-12T06:03:40.784Z,22.40
2018-08-12T06:04:12.541Z,22.30
2018-08-12T06:04:44.333Z,22.30
2018-08-12T06:05:16.105Z,22.30
2018-08-12T06:05:47.871Z,22.30
2018-08-12T06:06:19.657Z,22.30
2018-08-12T06:06:51.417Z,22.30
2018-08-12T06:07:23.180Z,22.30
2018-08-12T06:07:55.022Z,22.20
2018-08-12T06:08:26.792Z,22.20
2018-08-12T06:08:58.722Z,22.20
2018-08-12T06:09:30.370Z,22.20
2018-08-12T06:10:02.169Z,22.10
2018-08-12T06:10:33.929Z,22.10
2018-08-12T06:11:05.705Z,22.10
2018-08-12T06:11:37.468Z,22.10
2018-08-12T06:12:09.263Z,22.10
2018-08-12T06:12:41.130Z,22.10
2018-08-12T06:13:12.875Z,22.10
2018-08-12T06:13:44.635Z,22.20
2018-08-12T06:14:16.414Z,22.10
2018-08-12T06:14:48.187Z,22.10
2018-08-12T06:15:19.953Z,22.10
2018-08-12T06:15:51.728Z,22.20
2018-08-12T06:16:23.489Z,22.10
2018-08-12T06:16:55.274Z,22.10
2018-08-12T06:17:27.061Z,22.10
2018-08-12T06:17:58.826Z,22.10
2018-08-12T06:18:30.576Z,22.00
2018-08-12T06:19:02.336Z,22.00
2018-08-12T06:19:34.120Z,22.00
2018-08-12T06:20:05.880Z,22.00
2018-08-12T06:20:37.639Z,22.10
2018-08-12T06:21:09.433Z,22.10
2018-08-12T06:21:41.211Z,22.00
2018-08-12T06:22:12.960Z,22.00
2018-08-12T06:22:44.736Z,22.00
2018-08-12T06:23:16.511Z,22.10
2018-08-12T06:23:48.280Z,22.10
2018-08-12T06:24:20.060Z,22.10
2018-08-12T06:24:51.839Z,22.10
2018-08-12T06:25:23.600Z,22.20
2018-08-12T06:25:55.363Z,22.20
2018-08-12T06:26:27.156Z,22.20
2018-08-12T06:26:58.913Z,22.30
2018-08-12T06:27:30.685Z,22.30
2018-08-12T06:28:02.458Z,22.30
2018-08-12T06:28:34.258Z,22.30
2018-08-12T06:29:06.016Z,22.30
2018-08-12T06:29:37.800Z,22.30
2018-08-12T06:30:09.563Z,22.30
2018-08-12T06:30:41.332Z,22.20
2018-08-12T06:31:13.117Z,22.20
2018-08-12T06:31:44.898Z,22.20
2018-08-12T06:32:16.648Z,22.20
2018-08-12T06:32:48.411Z,22.20
2018-08-12T06:33:20.168Z,22.30
2018-08-12T06:33:52.001Z,22.30
2018-08-12T06:34:23.796Z,22.30
2018-08-12T06:34:55.559Z,22.20
2018-08-12T06:35:27.301Z,22.30
2018-08-12T06:35:59.068Z,22.30
2018-08-12T06:36:30.853Z,22.30
2018-08-12T06:37:02.613Z,22.30
2018-08-12T06:37:34.385Z,22.30
2018-08-12T06:38:06.178Z,22.30
2018-08-12T06:38:37.949Z,22.30
2018-08-12T06:39:09.715Z,22.30
2018-08-12T06:39:41.477Z,22.30
2018-08-12T06:40:13.237Z,22.30
2018-08-12T06:40:45.019Z,22.20
2018-08-12T06:41:16.775Z,22.20
2018-08-12T06:41:48.542Z,22.20
2018-08-12T06:42:20.301Z,22.20
2018-08-12T06:42:52.064Z,22.20
2018-08-12T06:43:23.828Z,22.20
2018-08-12T06:43:55.828Z,22.20
2018-08-12T06:44:27.610Z,22.20
2018-08-12T06:44:59.351Z,22.10
2018-08-12T06:45:31.126Z,22.10
2018-08-12T06:46:02.884Z,22.20
2018-08-12T06:46:34.651Z,22.20
2018-08-12T06:47:06.418Z,22.20
2018-08-12T06:47:38.162Z,22.20
2018-08-12T06:48:09.945Z,22.30
2018-08-12T06:48:41.704Z,22.30
2018-08-12T06:49:13.512Z,22.30